• Join FlightAware (Why Join?)
  • Login
  • US Flag 
05:28PM EDT


 

Airport Tracker/Info


-or-


 

Live Flight TrackerFlight Track Log ✈ EJA951 ✈ 21-Mar-2014 ✈ KMIA - KTEB

Flight Track Log - Related Links

Times and Time Zones

All times are in EDT time to prevent confusion due to time zone crossing. See the EJA951 flight status page for this flight to view local times or setup timezone preferences in your user account.

Time Position Orientation Groundspeed Altitude Reporting Facility
EDT Latitude Longitude Course Direction KTS MPH feet Rate Location/Type
09:59AM 25.8003 -80.2744 83° East 171 197 800  Level Miami Center
10:01AM 25.8083 -80.1964 83° East 208 239 5,900 3,480 Climbing Miami Center
10:01AM 25.8144 -80.1964 360° North 203 234 5,700 1,020 Descending Miami Center
10:02AM 25.8206 -80.1181 85° East 287 330 7,000 1,200 Climbing Miami Center
10:02AM 25.8167 -80.1067 111° Southeast 306 352 7,000 1,200 Level Miami Center
10:03AM 25.8472 -80.0381 64° Northeast 302 348 8,200 1,620 Climbing Miami Center
10:04AM 25.8928 -79.9608 57° Northeast 308 354 10,200 1,740 Climbing Miami Center
10:05AM 25.9469 -79.8719 56° Northeast 319 367 11,700 1,500 Climbing Miami Center
10:06AM 26.0011 -79.7742 58° Northeast 347 399 13,200 1,500 Climbing Miami Center
10:07AM 26.0678 -79.6761 53° Northeast 373 429 14,700 1,500 Climbing Miami Center
10:08AM 26.1344 -79.5736 54° Northeast 391 450 16,200 1,500 Climbing Miami Center
10:09AM 26.2011 -79.4686 55° Northeast 403 464 17,700 1,500 Climbing Miami Center
10:10AM 26.2858 -79.3986 37° Northeast 387 445 19,200 1,740 Climbing Miami Center
10:11AM 26.3878 -79.3150 36° Northeast 387 445 21,200 1,500 Climbing Miami Center
10:12AM 26.4767 -79.2472 34° Northeast 410 472 22,200 1,080 Climbing Miami Center
10:13AM 26.5717 -79.1678 37° Northeast 421 484 23,400 1,200 Climbing Miami Center
10:14AM 26.6692 -79.0814 38° Northeast 433 498 24,700 1,200 Climbing Miami Center
10:15AM 26.7728 -78.9950 37° Northeast 446 513 25,900 1,200 Climbing Miami Center
10:16AM 26.8806 -78.9156 33° Northeast 451 519 27,200 1,380 Climbing Miami Center
10:17AM 26.9983 -78.8569 24° Northeast 451 519 28,700 1,500 Climbing Miami Center
10:18AM 27.1203 -78.7914 26° Northeast 451 519 30,300 1,320 Climbing Miami Center
10:19AM 27.2339 -78.7278 26° Northeast 445 512 31,400 1,020 Climbing Miami Center
10:20AM 27.3475 -78.6619 27° Northeast 454 522 32,400 1,320 Climbing Miami Center
10:21AM 27.4633 -78.5958 27° Northeast 454 522 34,100 1,260 Climbing Miami Center
10:22AM 27.5811 -78.5272 27° Northeast 462 532 35,000 420 Climbing Miami Center
10:23AM 27.7050 -78.4539 28° Northeast 471 542 35,000 420 Level Miami Center
10:24AM 27.8289 -78.4039 20° North 471 542 35,900 900 Climbing Miami Center
10:25AM 27.9567 -78.3681 14° North 471 542 36,800 900 Climbing Miami Center
10:26AM 28.0778 -78.3603 North 452 520 37,800 960 Climbing Miami Center
10:27AM 28.2094 -78.3525 North 449 517 38,800 960 Climbing Miami Center
10:28AM 28.3306 -78.3425 North 444 511 39,800 960 Climbing Miami Center
10:29AM 28.4558 -78.3347 North 444 511 40,800 600 Climbing Miami Center
10:30AM 28.5769 -78.3267 North 444 511 41,000 60 Climbing Miami Center
10:31AM 28.7064 -78.3167 North 451 519 41,000  Level Miami Center
10:32AM 28.8381 -78.3042 North 456 525 41,000  Level Miami Center
10:33AM 28.9717 -78.2964 North 470 541 41,000 -60 Level Miami Center
10:34AM 29.1075 -78.2864 North 475 547 40,900  Descending Miami Center
10:35AM 29.2369 -78.2783 North 481 554 41,000  Climbing Miami Center
10:36AM 29.3725 -78.2706 North 481 554 41,000  Level Miami Center
10:37AM 29.4958 -78.2578 North 472 543 41,000  Level Miami Center
10:39AM 29.7347 -78.2361 North 466 536 41,000  Level Jacksonville Center
10:40AM 29.8617 -78.2253 North 466 536 41,000  Level Jacksonville Center
10:41AM 29.9886 -78.2142 North 460 529 41,000  Level Jacksonville Center
10:42AM 30.1178 -78.2033 North 462 532 41,000  Level Jacksonville Center
10:43AM 30.2428 -78.1994 North 454 522 41,000  Level Jacksonville Center
10:44AM 30.3803 -78.1906 North 459 528 41,000  Level Jacksonville Center
10:45AM 30.5092 -78.1817 North 464 534 41,000  Level Jacksonville Center
10:46AM 30.6361 -78.1706 North 459 528 41,000  Level Jacksonville Center
10:47AM 30.7714 -78.1614 North 465 535 41,000  Level Jacksonville Center
10:48AM 30.9047 -78.1522 North 465 535 41,000  Level Jacksonville Center
10:49AM 31.0458 -78.1331 North 465 535 41,000  Level Jacksonville Center
10:50AM 31.1772 -78.1242 North 470 541 41,000  Level Jacksonville Center
10:51AM 31.3083 -78.1150 North 470 541 41,000  Level Jacksonville Center
10:52AM 31.4394 -78.1058 North 470 541 41,000  Level Jacksonville Center
10:53AM 31.5725 -78.0917 North 470 541 41,000  Level Jacksonville Center
10:54AM 31.7036 -78.0822 North 475 547 41,000  Level Jacksonville Center
10:56AM 31.9722 -78.0633 North 475 547 41,000  Level Jacksonville Center
10:57AM 32.1053 -78.0514 North 475 547 41,000  Level Jacksonville Center
10:58AM 32.2406 -78.0419 North 475 547 41,000  Level Jacksonville Center
10:59AM 32.3739 -78.0325 North 475 547 41,000  Level Jacksonville Center
11:00AM 32.5092 -78.0203 North 475 547 41,000  Level Jacksonville Center
11:01AM 32.6422 -78.0131 North 475 547 41,000  Level Jacksonville Center
11:02AM 32.7775 -78.0033 North 475 547 41,000  Level Jacksonville Center
11:03AM 32.9150 -77.9933 North 475 547 41,000  Level Jacksonville Center
11:04AM 33.1281 -77.9742 North 480 552 41,000  Level Washington Center
11:05AM 33.2639 -77.9608 North 480 552 41,000  Level Washington Center
11:06AM 33.3997 -77.9519 North 480 552 41,000  Level Washington Center
11:07AM 33.5333 -77.9408 North 480 552 41,000  Level Washington Center
11:08AM 33.6669 -77.9322 North 480 552 41,000  Level Washington Center
11:09AM 33.8031 -77.9186 North 480 552 41,000  Level Washington Center
11:10AM 33.9556 -77.9053 North 485 558 41,000  Level Washington Center
11:11AM 34.0911 -77.8964 North 485 558 41,000  Level Washington Center
11:12AM 34.2292 -77.8828 North 491 565 41,000  Level Washington Center
11:13AM 34.3669 -77.8764 North 491 565 41,000  Level Washington Center
11:14AM 34.5028 -77.8753 360° North 491 565 41,000  Level Washington Center
11:15AM 34.6383 -77.8714 North 491 565 41,000  Level Washington Center
11:16AM 34.7761 -77.8703 360° North 486 559 41,000  Level Washington Center
11:17AM 34.9097 -77.8664 North 486 559 41,000  Level Washington Center
11:18AM 35.0517 -77.8653 360° North 486 559 41,000  Level Washington Center
11:19AM 35.1872 -77.8617 North 486 559 41,000  Level Washington Center
11:20AM 35.3231 -77.8578 North 486 559 41,000  Level Washington Center
11:21AM 35.4628 -77.8567 360° North 491 565 41,000  Level Washington Center
11:22AM 35.5983 -77.8553 360° North 491 565 41,000  Level Washington Center
11:23AM 35.7361 -77.8567 360° North 491 565 41,000  Level Washington Center
11:24AM 35.8739 -77.8528 North 497 572 41,000  Level Washington Center
11:25AM 36.0094 -77.8517 360° North 492 566 41,000  Level Washington Center
11:27AM 36.1453 -77.8503 360° North 487 560 41,000  Level Washington Center
11:27AM 36.2850 -77.8492 360° North 487 560 41,000  Level Washington Center
11:28AM 36.4208 -77.8453 North 487 560 41,000  Level Washington Center
11:29AM 36.5417 -77.8436 North 487 560 41,000  Level Washington Center
11:30AM 36.6742 -77.7931 17° North 487 560 41,000  Level Washington Center
11:31AM 36.8050 -77.7139 26° Northeast 494 568 41,000  Level Washington Center
11:32AM 36.9356 -77.6342 26° Northeast 511 588 41,000  Level Washington Center
11:33AM 37.0664 -77.5544 26° Northeast 511 588 41,000  Level Washington Center
11:34AM 37.1992 -77.4717 26° Northeast 516 594 41,000  Level Washington Center
11:35AM 37.3317 -77.3889 26° Northeast 516 594 41,000  Level Washington Center
11:36AM 37.4622 -77.3108 25° Northeast 516 594 41,000  Level Washington Center
11:37AM 37.5928 -77.2300 26° Northeast 511 588 41,000 -300 Level Washington Center
11:39AM 37.7231 -77.1461 27° Northeast 511 588 40,400 -960 Descending Washington Center
11:39AM 37.8533 -77.0647 26° Northeast 511 588 39,200 -1,320 Descending Washington Center
11:40AM 37.9794 -76.9853 26° Northeast 511 588 37,900 -1,260 Descending Washington Center
11:41AM 38.1056 -76.9058 26° Northeast 511 588 36,700 -960 Descending Washington Center
11:42AM 38.2272 -76.8261 27° Northeast 505 581 36,000 -360 Descending Washington Center
11:43AM 38.3700 -76.7411 25° Northeast 505 581 36,000  Level Washington Center
11:44AM 38.5000 -76.6556 27° Northeast 505 581 36,000  Level Washington Center
11:46AM 38.6278 -76.5750 26° Northeast 510 587 36,000 -300 Level Washington Center
11:46AM 38.7517 -76.4861 29° Northeast 510 587 35,500 -1,680 Descending Washington Center
11:47AM 38.8753 -76.3942 30° Northeast 505 581 32,800 -2,640 Descending Washington Center
11:48AM 38.9947 -76.3047 30° Northeast 499 574 30,200 -2,640 Descending Washington Center
11:49AM 39.1097 -76.2147 31° Northeast 493 567 27,600 -2,580 Descending Washington Center
11:50AM 39.2186 -76.1353 29° Northeast 488 562 25,200 -1,260 Descending Washington Center
11:52AM 39.4500 -75.9333 34° Northeast 494 568 24,000 -1,440 Descending Philadelphia TRACON
11:53AM 39.5500 -75.8333 38° Northeast 417 480 20,900 -3,120 Descending Philadelphia TRACON
11:55AM 39.6500 -75.7333 38° Northeast 430 495 17,200 -3,480 Descending Philadelphia TRACON
11:56AM 39.7500 -75.6500 33° Northeast 392 451 13,700 -2,220 Descending Philadelphia TRACON
11:56AM 39.8167 -75.5667 44° Northeast 340 391 13,000 -420 Descending Philadelphia TRACON
11:57AM 39.9000 -75.5000 32° Northeast 331 381 13,000  Level Philadelphia TRACON
11:58AM 39.9667 -75.4500 30° Northeast 329 379 13,000  Level Philadelphia TRACON
11:59AM 40.0500 -75.3667 37° Northeast 340 391 13,000  Level Philadelphia TRACON
12:01PM 40.1333 -75.2833 37° Northeast 341 392 13,000 -540 Level Philadelphia TRACON
12:02PM 40.2167 -75.2167 31° Northeast 338 389 11,900 -1,560 Descending Philadelphia TRACON
12:03PM 40.3333 -75.1000 37° Northeast 289 333 8,800 -1,620 Descending New York TRACON
12:04PM 40.3833 -75.0167 52° Northeast 281 323 7,400 -1,500 Descending New York TRACON
12:05PM 40.4333 -74.9500 45° Northeast 275 316 5,700 -1,560 Descending New York TRACON
12:06PM 40.4833 -74.8833 45° Northeast 268 308 4,300 -900 Descending New York TRACON
12:07PM 40.5333 -74.8167 45° Northeast 244 281 4,000 -120 Descending New York TRACON
12:08PM 40.5833 -74.7500 45° Northeast 232 267 4,100  Climbing New York TRACON
12:09PM 40.6333 -74.7000 37° Northeast 249 287 4,100 -60 Level New York TRACON
12:10PM 40.7000 -74.6500 30° Northeast 246 283 4,000 -120 Descending New York TRACON
12:11PM 40.7500 -74.6000 37° Northeast 257 296 3,900 -480 Descending New York TRACON
12:12PM 40.8000 -74.5167 52° Northeast 244 281 3,100 -420 Descending New York TRACON
12:13PM 40.8333 -74.4667 49° Northeast 240 276 3,100  Level New York TRACON
12:14PM 40.8667 -74.4000 57° Northeast 237 273 3,100 -60 Level New York TRACON
12:15PM 40.9000 -74.3167 62° Northeast 237 273 3,000  Descending New York TRACON
12:16PM 40.9500 -74.2333 52° Northeast 241 277 3,100 -60 Climbing New York TRACON
12:17PM 40.9833 -74.1833 49° Northeast 249 287 2,900 -420 Descending New York TRACON
12:18PM 40.9833 -74.0833 90° East 236 272 2,400 -420 Descending New York TRACON
12:19PM 40.9833 -74.0167 90° East 197 227 2,100 -180 Descending New York TRACON
12:20PM 40.9500 -73.9667 131° Southeast 209 241 2,100 -420 Level New York TRACON
12:21PM 40.9000 -74.0000 207° Southwest 147 169 1,300 -720 Descending New York TRACON
12:22PM 40.8667 -74.0333 217° Southwest 137 158 700 -600 Descending New York TRACON